Time;durP1;ratioP1;P1;durP2;ratioP2;P2;SDS_P1;SDS_P2;PMS_P1;PMS_P2;Temp;Humidity;BMP_temperature;BMP_pressure;BME280_temperature;BME280_humidity;BME280_pressure;Samples;Min_cycle;Max_cycle;Signal;HPM_P1;HPM_P2
2022/07/01 00:00:20;;;;;;;1.40;0.70;;;27.30;42.60;;;;;;5110775;23;20035;-73
2022/07/01 00:02:22;;;;;;;2.28;0.98;;;27.40;42.40;;;;;;5079661;23;20056;-63
2022/07/01 00:04:27;;;;;;;0.90;0.80;;;27.60;42.30;;;;;;5068380;23;20029;-65
2022/07/01 00:06:30;;;;;;;1.67;1.05;;;27.70;42.10;;;;;;5093877;23;20028;-67
2022/07/01 00:08:32;;;;;;;2.35;1.23;;;27.80;41.90;;;;;;5099760;23;20395;-62
2022/07/01 00:10:37;;;;;;;1.60;0.50;;;27.90;41.80;;;;;;5094603;23;20487;-63
2022/07/01 00:12:39;;;;;;;1.33;0.70;;;28.00;41.70;;;;;;5092234;23;20040;-63
2022/07/01 00:14:42;;;;;;;1.55;0.80;;;28.10;41.50;;;;;;5097674;23;20029;-63
2022/07/01 00:16:44;;;;;;;2.67;1.08;;;28.30;41.40;;;;;;5099595;23;20032;-67
2022/07/01 00:18:46;;;;;;;1.05;0.60;;;28.40;41.20;;;;;;5092848;23;20028;-66
2022/07/01 00:20:50;;;;;;;1.53;0.90;;;28.50;41.10;;;;;;5094989;23;20032;-65
2022/07/01 00:22:52;;;;;;;1.02;0.70;;;28.70;40.90;;;;;;5069865;23;20943;-66
2022/07/01 00:24:55;;;;;;;1.37;0.80;;;28.80;40.80;;;;;;5066140;23;20551;-66
2022/07/01 00:26:57;;;;;;;1.83;1.00;;;28.90;40.60;;;;;;5095080;23;20029;-70
2022/07/01 00:28:59;;;;;;;1.67;1.17;;;28.90;40.00;;;;;;5072878;23;20403;-70
2022/07/01 00:31:02;;;;;;;2.17;1.42;;;28.80;39.20;;;;;;5071930;23;20263;-68
2022/07/01 00:33:04;;;;;;;1.58;0.98;;;28.50;38.70;;;;;;5065444;23;20056;-67
2022/07/01 00:35:10;;;;;;;2.03;1.02;;;28.20;38.80;;;;;;5072252;23;20067;-76
2022/07/01 00:37:15;;;;;;;2.95;1.40;;;27.90;39.40;;;;;;5101076;23;20098;-59
2022/07/01 00:39:18;;;;;;;3.10;1.30;;;27.60;40.20;;;;;;5095315;23;20456;-63
2022/07/01 00:41:20;;;;;;;2.35;1.02;;;27.30;41.40;;;;;;5092914;23;20142;-62
2022/07/01 00:43:24;;;;;;;1.52;1.10;;;27.00;41.50;;;;;;5093112;23;20455;-61
2022/07/01 00:45:26;;;;;;;2.13;1.30;;;26.80;41.90;;;;;;5047040;23;20247;-64
2022/07/01 00:47:28;;;;;;;2.15;1.30;;;26.60;42.10;;;;;;5089825;23;20461;-62
2022/07/01 00:49:31;;;;;;;1.53;0.90;;;26.40;42.60;;;;;;5067189;23;20364;-59
2022/07/01 00:51:34;;;;;;;1.58;1.05;;;26.20;42.90;;;;;;5096233;23;20734;-54
2022/07/01 00:53:36;;;;;;;1.30;0.88;;;26.10;43.30;;;;;;5068595;23;20437;-57
2022/07/01 00:55:39;;;;;;;2.13;1.13;;;25.90;43.40;;;;;;5094169;23;20118;-60
2022/07/01 00:57:43;;;;;;;1.10;0.80;;;25.80;43.60;;;;;;5095863;23;20151;-59
2022/07/01 00:59:46;;;;;;;1.10;0.90;;;25.70;43.90;;;;;;5098396;23;20317;-58
2022/07/01 01:01:48;;;;;;;0.80;0.80;;;25.50;44.20;;;;;;5094791;23;20032;-62
2022/07/01 01:03:51;;;;;;;1.25;0.80;;;25.40;44.40;;;;;;5067218;23;20036;-62
2022/07/01 01:05:55;;;;;;;2.10;0.87;;;25.30;44.40;;;;;;5099369;23;20039;-61
2022/07/01 01:07:57;;;;;;;1.17;1.00;;;25.20;44.70;;;;;;5096495;23;20478;-58
2022/07/01 01:10:03;;;;;;;1.27;0.98;;;25.10;45.00;;;;;;5092256;23;20415;-60
2022/07/01 01:12:06;;;;;;;1.92;1.13;;;25.00;45.00;;;;;;5068345;23;20752;-60
2022/07/01 01:14:08;;;;;;;1.90;1.05;;;24.90;45.20;;;;;;5100943;23;20226;-59
2022/07/01 01:16:19;;;;;;;1.08;0.98;;;24.80;45.40;;;;;;5105658;23;20088;-60
2022/07/01 01:18:21;;;;;;;1.40;0.70;;;24.70;45.40;;;;;;5106088;23;20234;-60
2022/07/01 01:20:23;;;;;;;1.17;0.80;;;24.60;45.60;;;;;;5103236;23;20485;-63
2022/07/01 01:22:26;;;;;;;2.23;0.87;;;24.50;45.80;;;;;;5106865;23;20021;-60
2022/07/01 01:24:28;;;;;;;;;;;24.40;45.80;;;;;;5080462;23;20436;-59
2022/07/01 01:26:30;;;;;;;1.73;0.88;;;24.30;46.20;;;;;;5072078;23;20041;-57
2022/07/01 01:28:32;;;;;;;1.20;0.80;;;24.20;46.10;;;;;;5070287;23;20394;-59
2022/07/01 01:30:35;;;;;;;1.70;0.77;;;24.20;46.40;;;;;;5071461;23;20060;-62
2022/07/01 01:32:38;;;;;;;0.85;0.77;;;24.10;46.40;;;;;;5093534;23;20435;-54
2022/07/01 01:34:40;;;;;;;1.10;1.00;;;24.00;46.50;;;;;;5065680;23;20067;-56
2022/07/01 01:36:43;;;;;;;1.80;0.90;;;24.00;46.70;;;;;;5103177;23;20082;-59
2022/07/01 01:38:45;;;;;;;;;;;23.90;46.80;;;;;;5098305;23;20028;-59
2022/07/01 01:40:49;;;;;;;0.98;0.80;;;23.80;47.10;;;;;;5064557;23;20122;-59
2022/07/01 01:42:52;;;;;;;1.08;0.90;;;23.70;47.00;;;;;;5093582;23;20032;-61
2022/07/01 01:44:54;;;;;;;1.67;0.80;;;23.60;47.10;;;;;;5099845;23;20094;-61
2022/07/01 01:46:56;;;;;;;0.60;0.60;;;23.60;47.30;;;;;;5094321;23;20028;-64
2022/07/01 01:48:59;;;;;;;1.60;0.80;;;23.50;47.40;;;;;;5093084;23;20051;-62
2022/07/01 01:51:01;;;;;;;1.27;1.00;;;23.50;47.80;;;;;;5094250;23;20056;-61
2022/07/01 01:53:03;;;;;;;1.35;1.17;;;23.30;47.70;;;;;;5095120;23;20393;-62
2022/07/01 01:55:06;;;;;;;2.95;1.60;;;23.30;47.40;;;;;;5094416;23;20024;-63
2022/07/01 01:57:09;;;;;;;4.35;1.63;;;23.20;47.60;;;;;;5069815;23;20059;-61
2022/07/01 01:59:12;;;;;;;1.90;1.40;;;23.10;47.60;;;;;;5097319;23;20097;-60
2022/07/01 02:01:15;;;;;;;1.73;1.17;;;23.00;47.50;;;;;;5090955;23;20486;-60
2022/07/01 02:03:17;;;;;;;1.85;1.00;;;22.90;47.80;;;;;;5067709;23;20029;-59
2022/07/01 02:05:22;;;;;;;1.15;0.90;;;22.90;47.80;;;;;;5069493;23;20036;-62
2022/07/01 02:07:25;;;;;;;1.60;1.23;;;22.80;48.10;;;;;;5070232;23;20266;-62
2022/07/01 02:09:28;;;;;;;2.78;0.80;;;22.70;48.20;;;;;;5092743;23;20415;-62
2022/07/01 02:11:31;;;;;;;2.17;1.13;;;22.70;48.60;;;;;;5066229;23;20091;-62
2022/07/01 02:13:33;;;;;;;1.95;1.05;;;22.60;48.70;;;;;;5072480;23;20035;-63
2022/07/01 02:15:35;;;;;;;1.98;0.70;;;22.60;48.90;;;;;;5064742;23;20569;-61
2022/07/01 02:17:38;;;;;;;1.67;0.95;;;22.60;49.00;;;;;;5095094;23;20040;-61
2022/07/01 02:19:40;;;;;;;1.83;1.20;;;22.50;49.10;;;;;;5098123;23;20098;-61
2022/07/01 02:21:43;;;;;;;1.90;1.40;;;22.40;49.40;;;;;;5097488;23;20363;-62
2022/07/01 02:23:45;;;;;;;2.75;1.30;;;22.40;49.40;;;;;;5092377;23;20342;-60
2022/07/01 02:25:47;;;;;;;3.65;1.58;;;22.40;49.50;;;;;;5067459;23;20383;-61
2022/07/01 02:27:50;;;;;;;2.83;1.20;;;22.30;49.60;;;;;;5071072;23;20029;-62
2022/07/01 02:29:52;;;;;;;2.25;1.42;;;22.20;49.60;;;;;;5092421;23;20032;-60
2022/07/01 02:31:54;;;;;;;3.25;1.40;;;22.20;49.80;;;;;;5094359;23;20108;-61
2022/07/01 02:33:56;;;;;;;3.13;1.50;;;22.20;49.90;;;;;;5071639;23;20115;-60
2022/07/01 02:36:02;;;;;;;3.63;1.77;;;22.10;50.00;;;;;;5066854;23;20515;-60
2022/07/01 02:38:05;;;;;;;3.05;1.48;;;22.10;50.30;;;;;;5096681;23;20028;-61
2022/07/01 02:40:07;;;;;;;;;;;22.00;50.20;;;;;;5096851;23;20110;-64
2022/07/01 02:42:28;;;;;;;3.70;1.63;;;22.00;50.30;;;;;;5072690;23;19920;-63
2022/07/01 02:44:30;;;;;;;4.25;1.92;;;22.00;50.60;;;;;;5098965;23;20491;-62
2022/07/01 02:46:35;;;;;;;3.15;1.42;;;21.90;50.60;;;;;;5100516;23;20028;-61
2022/07/01 02:48:38;;;;;;;3.03;2.10;;;21.90;50.60;;;;;;5066765;23;20581;-66
2022/07/01 02:50:40;;;;;;;4.07;1.92;;;21.80;51.50;;;;;;5066584;23;20028;-60
2022/07/01 02:52:43;;;;;;;3.88;2.15;;;21.80;51.10;;;;;;5097187;23;20032;-61
2022/07/01 02:54:45;;;;;;;3.65;2.05;;;21.80;51.20;;;;;;5068178;23;20033;-61
2022/07/01 02:56:47;;;;;;;3.17;1.83;;;21.70;51.10;;;;;;5092407;23;20032;-61
2022/07/01 02:58:49;;;;;;;3.15;1.80;;;21.70;51.40;;;;;;5066136;23;20033;-63
2022/07/01 03:00:52;;;;;;;5.85;2.35;;;21.60;51.50;;;;;;5069453;23;20029;-61
2022/07/01 03:02:55;;;;;;;3.80;2.00;;;21.60;51.60;;;;;;5092697;23;20035;-62
2022/07/01 03:04:57;;;;;;;4.00;1.90;;;21.50;51.60;;;;;;5092862;23;20021;-62
2022/07/01 03:07:00;;;;;;;5.30;2.50;;;21.50;51.70;;;;;;5073029;23;20554;-61
2022/07/01 03:09:02;;;;;;;5.20;3.20;;;21.50;51.50;;;;;;5041534;23;20473;-60
2022/07/01 03:11:04;;;;;;;6.68;2.80;;;21.40;51.70;;;;;;5066248;23;20056;-62
2022/07/01 03:13:08;;;;;;;4.43;2.92;;;21.40;51.80;;;;;;5097519;23;20832;-63
2022/07/01 03:15:10;;;;;;;;;;;21.30;52.30;;;;;;5071928;23;20094;-63
2022/07/01 03:17:13;;;;;;;6.13;2.50;;;21.30;52.20;;;;;;5041687;23;20497;-62
2022/07/01 03:19:15;;;;;;;4.35;2.30;;;21.30;52.50;;;;;;5065332;23;20029;-63
2022/07/01 03:21:17;;;;;;;4.17;2.13;;;21.20;52.60;;;;;;5098306;23;20048;-60
2022/07/01 03:23:20;;;;;;;3.80;2.20;;;21.20;52.60;;;;;;5067669;23;20689;-63
2022/07/01 03:25:23;;;;;;;3.13;1.80;;;21.20;52.80;;;;;;5093378;23;20131;-63
2022/07/01 03:27:26;;;;;;;3.38;1.67;;;21.20;52.90;;;;;;5096993;23;20036;-60
2022/07/01 03:29:28;;;;;;;3.08;1.63;;;21.10;53.00;;;;;;5098413;23;20385;-62
2022/07/01 03:31:31;;;;;;;3.15;1.60;;;21.10;53.10;;;;;;5092066;23;20052;-62
2022/07/01 03:33:33;;;;;;;3.05;1.95;;;21.10;53.10;;;;;;5094670;23;20028;-61
2022/07/01 03:35:35;;;;;;;2.30;1.63;;;21.00;53.10;;;;;;5095925;23;20027;-62
2022/07/01 03:37:37;;;;;;;2.38;1.20;;;21.00;53.20;;;;;;5092707;23;20055;-62
2022/07/01 03:39:41;;;;;;;4.50;1.52;;;21.00;53.30;;;;;;5095392;23;20079;-62
2022/07/01 03:41:44;;;;;;;4.10;1.60;;;20.90;53.40;;;;;;5099108;23;20074;-58
2022/07/01 03:43:46;;;;;;;3.78;1.77;;;20.90;53.80;;;;;;5096026;23;20897;-62
2022/07/01 03:45:48;;;;;;;3.22;1.38;;;21.20;53.90;;;;;;5064410;23;20033;-60
2022/07/01 03:47:51;;;;;;;1.75;1.20;;;21.60;52.90;;;;;;5044295;23;20571;-60
2022/07/01 03:49:54;;;;;;;2.60;1.25;;;22.20;51.90;;;;;;5071841;23;20159;-60
2022/07/01 03:51:56;;;;;;;2.53;1.50;;;22.80;50.90;;;;;;5093661;23;20275;-61
2022/07/01 03:56:18;;;;;;;2.42;1.30;;;23.70;49.00;;;;;;5091600;23;20422;-61
2022/07/01 03:58:21;;;;;;;4.18;1.60;;;24.20;48.30;;;;;;5091167;23;20127;-57
2022/07/01 04:00:23;;;;;;;3.08;1.58;;;24.50;47.70;;;;;;5073257;23;20032;-64
2022/07/01 04:02:26;;;;;;;2.70;1.57;;;24.80;47.20;;;;;;5069424;23;20029;-60
2022/07/01 04:04:29;;;;;;;3.08;1.40;;;25.00;46.80;;;;;;5095214;23;20491;-61
2022/07/01 04:06:31;;;;;;;2.53;1.33;;;25.30;46.40;;;;;;5072332;23;20121;-61
2022/07/01 04:08:34;;;;;;;2.53;1.23;;;25.40;46.00;;;;;;5097418;23;20143;-58
2022/07/01 04:10:38;;;;;;;3.22;1.70;;;25.70;45.80;;;;;;5093799;23;20956;-59
2022/07/01 04:12:40;;;;;;;1.35;1.00;;;25.90;45.50;;;;;;5088241;23;20059;-60
2022/07/01 04:14:42;;;;;;;2.83;1.65;;;26.10;45.20;;;;;;5069083;23;20025;-60
2022/07/01 04:16:45;;;;;;;4.43;1.58;;;26.30;45.00;;;;;;5091199;23;20690;-63
2022/07/01 04:18:47;;;;;;;;;;;26.50;44.90;;;;;;5064377;23;20543;-65
2022/07/01 04:23:11;;;;;;;0.95;0.70;;;26.00;45.20;;;;;;5032806;23;20029;-61
2022/07/01 04:25:13;;;;;;;1.67;1.10;;;25.60;45.80;;;;;;5097472;23;20486;-67
2022/07/01 04:27:16;;;;;;;1.73;1.17;;;25.20;46.20;;;;;;5066114;23;20386;-61
2022/07/01 04:29:19;;;;;;;3.60;1.30;;;24.90;46.70;;;;;;5091003;23;20039;-62
2022/07/01 04:31:21;;;;;;;2.10;1.10;;;24.60;47.00;;;;;;5093252;23;20547;-62
2022/07/01 04:33:24;;;;;;;1.95;1.20;;;24.40;47.60;;;;;;5069759;23;20107;-62
2022/07/01 04:35:26;;;;;;;1.55;1.20;;;24.20;47.80;;;;;;5063098;23;20427;-67
2022/07/01 04:37:28;;;;;;;1.67;1.23;;;24.10;48.00;;;;;;5060788;23;20029;-64
2022/07/01 04:39:31;;;;;;;2.17;1.40;;;23.90;48.40;;;;;;5067743;23;20950;-67
2022/07/01 04:43:54;;;;;;;2.38;1.20;;;23.60;48.80;;;;;;5071623;23;20569;-61
2022/07/01 04:45:56;;;;;;;2.95;1.38;;;23.50;48.70;;;;;;5092987;23;20112;-61
2022/07/01 04:47:58;;;;;;;4.17;1.50;;;23.40;48.90;;;;;;5039075;23;20064;-62
2022/07/01 04:50:01;;;;;;;3.35;1.63;;;23.30;49.10;;;;;;5069533;23;20021;-63
2022/07/01 04:52:04;;;;;;;4.70;1.58;;;23.20;49.20;;;;;;5065480;23;20158;-78
2022/07/01 04:54:07;;;;;;;3.45;1.92;;;23.20;49.50;;;;;;5090269;23;20206;-73
2022/07/01 04:56:09;;;;;;;4.88;1.77;;;23.00;49.80;;;;;;5065355;23;20030;-68
2022/07/01 04:58:12;;;;;;;3.67;1.85;;;23.00;49.90;;;;;;5067442;23;20402;-74
2022/07/01 05:00:15;;;;;;;4.15;2.10;;;22.90;50.00;;;;;;5037928;23;20156;-68
2022/07/01 05:02:18;;;;;;;3.40;1.60;;;22.90;50.40;;;;;;5065477;23;20463;-73
2022/07/01 05:04:20;;;;;;;3.88;1.90;;;22.80;50.40;;;;;;5067695;23;20033;-66
2022/07/01 05:06:22;;;;;;;5.82;2.28;;;22.70;50.50;;;;;;5092521;23;20080;-63
2022/07/01 05:08:24;;;;;;;4.50;1.98;;;22.70;50.80;;;;;;5091291;23;20040;-68
2022/07/01 05:10:28;;;;;;;3.30;1.70;;;22.60;51.00;;;;;;5066656;23;20180;-64
2022/07/01 05:12:30;;;;;;;1.88;1.30;;;22.60;51.00;;;;;;5097018;23;20131;-66
2022/07/01 05:14:34;;;;;;;4.38;1.65;;;22.50;51.00;;;;;;5091495;23;20762;-68
2022/07/01 05:16:37;;;;;;;2.13;1.40;;;22.50;51.20;;;;;;5091975;23;20414;-68
2022/07/01 05:23:20;;;;;;;2.42;1.42;;;22.30;51.50;;;;;;5066164;23;20024;-67
2022/07/01 05:25:22;;;;;;;2.90;1.45;;;22.20;51.50;;;;;;5092361;23;20391;-63
2022/07/01 05:27:25;;;;;;;2.87;1.70;;;22.10;51.50;;;;;;5097278;23;20086;-63
2022/07/01 05:29:27;;;;;;;2.22;1.50;;;22.10;51.50;;;;;;5063869;23;20905;-62
2022/07/01 05:31:30;;;;;;;2.37;1.50;;;22.00;51.60;;;;;;5092842;23;20029;-62
2022/07/01 05:33:32;;;;;;;2.10;1.40;;;22.00;51.70;;;;;;5071517;23;20619;-69
2022/07/01 05:35:34;;;;;;;4.80;1.50;;;22.00;51.80;;;;;;5071989;23;20239;-72
2022/07/01 05:37:36;;;;;;;2.33;1.60;;;21.90;51.70;;;;;;5091434;23;20507;-63
2022/07/01 05:39:38;;;;;;;3.80;1.50;;;21.90;51.90;;;;;;5092688;23;20478;-64
2022/07/01 05:41:41;;;;;;;2.35;1.40;;;21.80;52.30;;;;;;5101106;23;20115;-63
2022/07/01 05:43:43;;;;;;;2.10;1.38;;;21.80;52.20;;;;;;5065940;23;20162;-65
2022/07/01 05:45:45;;;;;;;1.92;1.48;;;21.70;52.50;;;;;;5064527;23;20029;-66
2022/07/01 05:47:47;;;;;;;2.17;1.30;;;21.70;52.50;;;;;;5094264;23;20448;-62
2022/07/01 05:49:50;;;;;;;2.05;1.10;;;21.70;52.60;;;;;;5065019;23;20055;-73
2022/07/01 05:51:52;;;;;;;2.17;1.40;;;21.60;52.60;;;;;;5089934;23;20471;-67
2022/07/01 05:53:56;;;;;;;3.22;1.50;;;21.60;52.60;;;;;;5068989;23;20420;-67
2022/07/01 05:55:58;;;;;;;4.68;1.58;;;21.50;52.60;;;;;;5096665;23;20024;-64
2022/07/01 05:58:03;;;;;;;2.70;1.20;;;21.50;52.70;;;;;;5092776;23;20386;-66
2022/07/01 06:00:06;;;;;;;2.33;1.42;;;21.40;52.70;;;;;;5090538;23;20028;-65
2022/07/01 06:02:09;;;;;;;2.80;1.10;;;21.40;52.90;;;;;;5075826;23;21053;-64
2022/07/01 06:04:11;;;;;;;2.37;1.50;;;21.30;52.90;;;;;;5111062;23;20032;-68
2022/07/01 06:06:13;;;;;;;2.30;1.30;;;21.30;53.10;;;;;;5075543;23;20727;-66
2022/07/01 06:08:15;;;;;;;3.33;1.55;;;21.30;53.10;;;;;;5103458;23;20035;-70
2022/07/01 06:10:17;;;;;;;3.58;1.65;;;21.30;53.30;;;;;;5078965;23;20108;-71
2022/07/01 06:12:21;;;;;;;1.98;1.23;;;21.20;53.30;;;;;;5098447;23;20486;-66
2022/07/01 06:14:23;;;;;;;2.45;1.50;;;21.20;53.50;;;;;;5085726;23;20052;-65
2022/07/01 06:16:25;;;;;;;4.68;1.63;;;21.10;53.70;;;;;;5069217;23;20108;-65
2022/07/01 06:18:28;;;;;;;2.60;1.30;;;21.10;53.70;;;;;;5092352;23;20069;-64
2022/07/01 06:20:30;;;;;;;4.60;1.77;;;21.10;53.90;;;;;;5089883;23;20029;-65
2022/07/01 06:22:34;;;;;;;3.15;1.60;;;21.00;53.70;;;;;;5066480;23;20036;-63
2022/07/01 06:24:36;;;;;;;2.10;1.50;;;21.00;54.10;;;;;;5095071;23;20329;-64
2022/07/01 06:26:38;;;;;;;3.50;1.48;;;21.00;54.20;;;;;;5062729;23;20029;-62
2022/07/01 06:28:41;;;;;;;2.17;1.33;;;21.00;54.30;;;;;;5091371;23;20025;-63
2022/07/01 06:30:45;;;;;;;1.83;1.35;;;21.00;54.60;;;;;;5065520;23;20025;-68
2022/07/01 06:32:47;;;;;;;1.92;1.42;;;20.90;54.50;;;;;;5063495;23;20067;-66
2022/07/01 06:34:51;;;;;;;3.30;1.50;;;20.90;54.30;;;;;;5089225;23;20090;-70
2022/07/01 06:36:55;;;;;;;2.25;1.35;;;20.90;54.30;;;;;;5091190;23;20462;-73
2022/07/01 06:38:57;;;;;;;2.53;1.70;;;20.80;54.20;;;;;;5068239;23;20033;-67
2022/07/01 06:43:20;;;;;;;2.83;1.85;;;20.80;54.30;;;;;;5067163;23;20694;-64
2022/07/01 06:45:22;;;;;;;3.08;1.60;;;20.80;54.30;;;;;;5059623;23;20332;-64
2022/07/01 06:47:25;;;;;;;3.20;1.80;;;20.70;54.50;;;;;;5061569;23;20096;-65
2022/07/01 06:49:27;;;;;;;3.17;1.70;;;20.70;54.50;;;;;;5066259;23;20641;-64
2022/07/01 06:51:29;;;;;;;2.78;1.70;;;20.60;54.50;;;;;;5064123;23;20616;-67
2022/07/01 06:53:32;;;;;;;3.72;1.45;;;20.60;54.50;;;;;;5039131;23;20148;-64
2022/07/01 06:55:34;;;;;;;3.27;1.60;;;20.60;54.60;;;;;;5094748;23;20120;-63
2022/07/01 06:57:37;;;;;;;3.17;1.73;;;20.60;55.00;;;;;;5093095;23;20273;-63
2022/07/01 06:59:39;;;;;;;2.88;1.77;;;20.50;54.80;;;;;;5093966;23;20073;-64
2022/07/01 07:01:44;;;;;;;2.47;1.75;;;20.50;54.80;;;;;;5066789;23;20060;-63
2022/07/01 07:03:47;;;;;;;3.30;2.20;;;20.50;54.80;;;;;;5071018;23;20029;-63
2022/07/01 07:05:49;;;;;;;4.07;2.43;;;20.40;54.80;;;;;;5094677;23;20025;-66
2022/07/01 07:07:51;;;;;;;5.63;3.10;;;20.40;54.80;;;;;;5069424;23;20028;-65
2022/07/01 07:09:55;;;;;;;7.28;4.22;;;20.40;54.90;;;;;;5070908;23;20531;-67
2022/07/01 07:11:58;;;;;;;8.07;4.53;;;20.30;54.90;;;;;;5072527;23;20039;-63
2022/07/01 07:14:00;;;;;;;9.88;6.10;;;20.30;54.90;;;;;;5094871;23;20265;-62
2022/07/01 07:16:02;;;;;;;10.57;5.55;;;20.30;55.00;;;;;;5063598;23;20463;-64
2022/07/01 07:18:04;;;;;;;11.07;6.43;;;20.20;55.00;;;;;;5074470;23;20028;-64
2022/07/01 07:20:07;;;;;;;11.80;7.53;;;20.20;55.00;;;;;;5093495;23;20391;-64
2022/07/01 07:22:10;;;;;;;12.48;7.55;;;20.20;55.10;;;;;;5092436;23;20553;-63
2022/07/01 07:24:12;;;;;;;10.45;5.28;;;20.10;55.20;;;;;;5097047;23;20029;-63
2022/07/01 07:26:14;;;;;;;9.95;5.10;;;20.10;56.20;;;;;;5096435;23;20146;-60
2022/07/01 07:28:16;;;;;;;9.63;5.32;;;20.30;55.60;;;;;;5093496;23;20029;-62
2022/07/01 07:30:19;;;;;;;11.05;5.53;;;20.90;54.80;;;;;;5068209;23;20079;-61
2022/07/01 07:32:21;;;;;;;9.18;4.82;;;21.50;53.70;;;;;;5076015;23;20033;-61
2022/07/01 07:34:23;;;;;;;9.48;5.53;;;22.10;52.80;;;;;;5067638;23;20029;-61
2022/07/01 07:36:25;;;;;;;11.02;5.45;;;22.60;51.70;;;;;;5065894;23;20033;-62
2022/07/01 07:38:28;;;;;;;10.38;5.35;;;23.10;51.10;;;;;;5067002;23;20068;-61
2022/07/01 07:40:30;;;;;;;11.60;5.30;;;23.40;50.30;;;;;;5067360;23;20121;-62
2022/07/01 07:42:33;;;;;;;10.43;5.40;;;23.80;49.70;;;;;;5065544;23;20088;-63
2022/07/01 07:44:35;;;;;;;8.43;4.72;;;24.10;49.30;;;;;;5065728;23;20033;-64
2022/07/01 07:46:37;;;;;;;11.95;6.43;;;24.40;48.70;;;;;;5071022;23;20335;-62
2022/07/01 07:48:39;;;;;;;8.13;5.22;;;24.70;48.30;;;;;;5063798;23;20028;-62
2022/07/01 07:50:42;;;;;;;9.77;5.30;;;24.90;48.00;;;;;;5067604;23;20029;-59
2022/07/01 07:52:44;;;;;;;10.40;5.53;;;25.10;47.70;;;;;;5070748;23;20070;-61
2022/07/01 07:54:46;;;;;;;8.95;5.05;;;25.40;47.50;;;;;;5066840;23;20064;-61
2022/07/01 07:56:48;;;;;;;7.85;4.63;;;25.60;47.20;;;;;;5063937;23;20534;-60
2022/07/01 07:58:50;;;;;;;7.63;5.05;;;25.80;47.10;;;;;;5070022;23;20115;-64
2022/07/01 08:00:53;;;;;;;8.18;5.03;;;26.00;46.70;;;;;;5066594;23;20043;-62
2022/07/01 08:02:55;;;;;;;11.32;5.03;;;26.20;46.60;;;;;;5067750;23;20205;-58
2022/07/01 08:04:57;;;;;;;10.55;4.38;;;26.30;46.40;;;;;;5069541;23;20029;-60
2022/07/01 08:06:59;;;;;;;6.57;3.80;;;26.60;46.20;;;;;;5070429;23;20032;-59
2022/07/01 08:09:02;;;;;;;7.53;4.50;;;26.70;45.90;;;;;;5066184;23;20060;-60
2022/07/01 08:11:04;;;;;;;8.77;4.30;;;26.70;45.60;;;;;;5064595;23;20033;-61
2022/07/01 08:13:06;;;;;;;10.50;4.60;;;26.40;45.90;;;;;;5071583;23;20122;-61
2022/07/01 08:15:10;;;;;;;7.10;4.45;;;25.90;46.70;;;;;;5066426;23;20021;-67
2022/07/01 08:17:12;;;;;;;8.48;4.78;;;25.60;47.40;;;;;;5067058;23;20025;-65
2022/07/01 08:19:14;;;;;;;6.90;4.03;;;25.20;47.70;;;;;;5071780;23;20079;-66
2022/07/01 08:21:17;;;;;;;7.57;4.23;;;24.90;48.00;;;;;;5070833;23;20033;-67
2022/07/01 08:23:20;;;;;;;6.15;3.97;;;24.70;48.50;;;;;;5065991;23;20279;-61
2022/07/01 08:25:22;;;;;;;6.60;3.95;;;24.50;48.80;;;;;;5066985;23;20850;-59
2022/07/01 08:27:25;;;;;;;6.07;3.90;;;24.30;48.80;;;;;;5072051;23;20949;-61
2022/07/01 08:29:27;;;;;;;6.82;3.58;;;24.10;49.00;;;;;;5073625;23;20033;-62
2022/07/01 08:31:31;;;;;;;10.68;3.65;;;24.00;48.90;;;;;;5086050;23;20569;-60
2022/07/01 08:33:39;;;;;;;5.50;3.80;;;23.80;49.30;;;;;;5060834;23;20550;-60
2022/07/01 08:35:41;;;;;;;5.80;3.70;;;23.70;50.20;;;;;;5089129;23;20396;-61
2022/07/01 08:37:44;;;;;;;6.43;3.67;;;23.50;49.60;;;;;;5055550;23;20362;-60
2022/07/01 08:39:46;;;;;;;6.50;3.13;;;23.40;49.90;;;;;;5059331;23;20033;-60
2022/07/01 08:41:51;;;;;;;8.50;3.75;;;23.30;50.20;;;;;;5069616;23;20040;-60
2022/07/01 08:43:54;;;;;;;5.35;3.30;;;23.20;50.40;;;;;;5066252;23;20342;-56
2022/07/01 08:45:58;;;;;;;7.50;3.40;;;23.10;50.70;;;;;;5085824;23;20024;-57
2022/07/01 08:48:01;;;;;;;6.95;3.55;;;23.00;50.80;;;;;;5090363;23;20368;-57
2022/07/01 08:50:04;;;;;;;8.50;3.45;;;22.90;50.90;;;;;;5093865;23;20067;-65
2022/07/01 08:52:09;;;;;;;5.13;2.80;;;22.90;51.30;;;;;;5094651;23;20451;-67
2022/07/01 08:54:11;;;;;;;4.60;2.45;;;22.80;51.40;;;;;;5059127;23;20097;-66
2022/07/01 08:58:36;;;;;;;3.88;2.65;;;22.70;51.80;;;;;;5090385;23;20028;-64
2022/07/01 09:00:39;;;;;;;4.85;2.88;;;22.60;51.80;;;;;;5065631;23;20033;-65
2022/07/01 09:03:03;;;;;;;6.90;2.78;;;22.50;52.40;;;;;;5095554;23;20032;-65
2022/07/01 09:05:06;;;;;;;4.88;2.60;;;22.50;51.90;;;;;;5062845;23;20408;-61
2022/07/01 09:07:10;;;;;;;3.95;2.85;;;22.40;52.40;;;;;;5068676;23;20108;-66
2022/07/01 09:09:18;;;;;;;4.65;2.83;;;22.30;52.20;;;;;;5070490;23;20484;-66
2022/07/01 09:11:22;;;;;;;4.03;2.55;;;22.30;52.40;;;;;;5064919;23;20029;-66
2022/07/01 09:13:25;;;;;;;9.10;2.92;;;22.20;52.30;;;;;;5036352;23;20095;-66
2022/07/01 09:15:32;;;;;;;4.28;2.90;;;22.10;52.20;;;;;;5091501;23;20033;-66
2022/07/01 09:17:39;;;;;;;5.30;3.10;;;22.10;52.30;;;;;;5098901;23;20039;-65
2022/07/01 09:19:53;;;;;;;4.60;3.10;;;22.00;52.40;;;;;;5071070;23;20048;-66
2022/07/01 09:22:00;;;;;;;5.25;2.92;;;21.90;52.40;;;;;;5095226;23;20148;-64
2022/07/01 09:24:25;;;;;;;4.22;2.78;;;21.90;52.40;;;;;;5090054;23;20028;-64
2022/07/01 09:26:28;;;;;;;4.57;2.88;;;21.80;52.50;;;;;;5051033;23;20112;-64
2022/07/01 09:28:30;;;;;;;6.10;2.95;;;21.80;52.70;;;;;;5091934;23;20274;-59
2022/07/01 09:30:33;;;;;;;4.63;2.97;;;21.70;52.60;;;;;;5087437;23;20091;-61
2022/07/01 09:32:35;;;;;;;4.45;2.90;;;21.60;52.80;;;;;;5088994;23;20028;-61
2022/07/01 09:34:48;;;;;;;5.07;3.00;;;21.60;53.20;;;;;;5095067;23;20075;-60
2022/07/01 09:36:58;;;;;;;4.47;2.80;;;21.50;53.40;;;;;;5063972;23;20028;-62
2022/07/01 09:39:04;;;;;;;5.55;2.95;;;21.50;53.90;;;;;;5066173;23;20462;-67
2022/07/01 09:41:11;;;;;;;5.60;2.97;;;21.50;54.70;;;;;;5062480;23;20664;-64
2022/07/01 09:43:23;;;;;;;4.68;2.90;;;21.40;55.20;;;;;;5059243;23;20025;-64
2022/07/01 09:45:26;;;;;;;5.65;3.22;;;21.40;55.20;;;;;;5059934;23;20801;-65
2022/07/01 09:47:30;;;;;;;4.10;2.97;;;21.40;55.70;;;;;;5057047;23;20024;-66
2022/07/01 09:49:32;;;;;;;6.15;3.30;;;21.40;56.00;;;;;;5064733;23;20028;-68
2022/07/01 09:51:35;;;;;;;4.85;3.22;;;21.30;55.80;;;;;;5062190;23;20559;-70
2022/07/01 09:53:37;;;;;;;6.22;3.22;;;21.40;55.80;;;;;;5058666;23;20037;-64
2022/07/01 09:55:40;;;;;;;5.63;3.03;;;21.30;56.10;;;;;;5066555;23;20029;-68
2022/07/01 09:57:42;;;;;;;5.55;3.45;;;21.30;55.80;;;;;;5071002;23;20263;-67
2022/07/01 09:59:45;;;;;;;5.17;3.20;;;21.30;56.10;;;;;;5088342;23;20032;-66
2022/07/01 10:01:48;;;;;;;5.43;3.42;;;21.30;56.00;;;;;;5087691;23;20033;-61
2022/07/01 10:03:55;;;;;;;5.88;2.90;;;21.30;56.00;;;;;;5094031;23;20031;-63
2022/07/01 10:06:04;;;;;;;6.50;3.78;;;21.20;56.30;;;;;;5094792;23;20033;-64
2022/07/01 10:08:31;;;;;;;5.93;3.72;;;21.20;56.10;;;;;;5092270;23;20429;-64
2022/07/01 10:10:57;;;;;;;4.40;3.13;;;21.20;56.20;;;;;;5062543;23;20690;-64
2022/07/01 10:13:02;;;;;;;4.95;3.30;;;21.20;56.10;;;;;;5062302;23;20140;-63
2022/07/01 10:15:08;;;;;;;5.57;3.63;;;21.10;56.30;;;;;;5089432;23;20373;-62
2022/07/01 10:17:44;;;;;;;4.82;3.15;;;21.10;56.20;;;;;;5088427;23;20034;-70
2022/07/01 10:19:56;;;;;;;4.72;3.30;;;21.10;56.30;;;;;;5060680;23;20499;-69
2022/07/01 10:22:26;;;;;;;4.93;3.30;;;21.10;56.30;;;;;;5071370;23;20582;-64
2022/07/01 10:24:29;;;;;;;5.07;3.17;;;21.00;56.20;;;;;;5088050;23;20024;-66
2022/07/01 10:26:31;;;;;;;4.40;3.00;;;21.00;56.60;;;;;;5065710;23;20044;-66
2022/07/01 10:28:46;;;;;;;4.63;2.70;;;21.00;56.50;;;;;;5095934;23;20055;-65
2022/07/01 10:30:53;;;;;;;5.32;3.13;;;21.00;56.70;;;;;;5095482;23;20086;-64
2022/07/01 10:33:01;;;;;;;4.60;2.97;;;21.00;56.80;;;;;;5070328;23;20923;-64
2022/07/01 10:35:07;;;;;;;4.70;3.20;;;20.90;56.90;;;;;;5063749;23;20712;-65
2022/07/01 10:37:11;;;;;;;4.72;3.00;;;20.90;56.80;;;;;;5063695;23;20140;-73
2022/07/01 10:39:17;;;;;;;4.60;2.67;;;20.90;57.00;;;;;;5091487;23;20039;-56
2022/07/01 10:41:26;;;;;;;4.47;3.00;;;20.90;57.00;;;;;;5099308;23;20497;-61
2022/07/01 10:43:35;;;;;;;5.13;3.10;;;20.90;57.00;;;;;;5068540;23;20459;-61
2022/07/01 10:45:46;;;;;;;5.10;2.90;;;20.80;57.10;;;;;;5074300;23;20107;-58
2022/07/01 10:47:49;;;;;;;5.72;3.05;;;20.80;56.70;;;;;;5100391;23;20036;-59
2022/07/01 10:50:18;;;;;;;4.57;2.70;;;20.80;56.60;;;;;;5098680;23;20032;-58
2022/07/01 10:52:21;;;;;;;4.75;3.00;;;20.70;56.30;;;;;;5106189;23;20024;-60
2022/07/01 10:54:39;;;;;;;5.82;2.85;;;20.70;56.30;;;;;;5114149;23;20241;-59
2022/07/01 10:56:42;;;;;;;4.60;3.15;;;20.60;56.20;;;;;;5112428;23;20016;-59
2022/07/01 10:58:44;;;;;;;4.00;2.85;;;20.60;56.30;;;;;;5106759;23;20148;-58
2022/07/01 11:00:52;;;;;;;4.65;2.80;;;20.60;56.30;;;;;;5076254;23;20048;-59